Monmouth, Oregon
Current Conditions -  °F | °C
As of 4:05 AM on Monday 26 Jan 2015 (Local Time) from KSLE Reporting Station
Moderate Fog Moderate Fog  
Wind Chill: 40°   Ceiling: 200
Heat Index: 43°   Visibility: 0.5mi
Dew Point: 42°   Wind: 5mph
Humidity: 97%   Direction: 130°SE
Pressure: 29.99"   Gusts: NA
Location:  44.85°N, 123.23°W
Report Text: KSLE 261205Z AUTO 13004KT 1/2SM R31/2000V4000FT FG VV002 06/06 A2999 RMK AO2 T00610056
Loading
Personal Weather Stations






























Interactive Weather Map New forecast layout! Learn more

10-Day Weather Forecast

Advertisements
Track Severe Weather on mobile